createdAt,value
2018-10-17T00:00:52.157Z,26.50
2018-10-17T00:01:52.125Z,25.50
2018-10-17T00:02:52.109Z,26.90
2018-10-17T00:03:52.103Z,25.70
2018-10-17T00:04:52.079Z,27.70
2018-10-17T00:05:52.053Z,25.70
2018-10-17T00:06:52.050Z,27.00
2018-10-17T00:07:52.025Z,25.80
2018-10-17T00:08:52.002Z,25.40
2018-10-17T00:09:51.994Z,27.20
2018-10-17T00:10:51.987Z,26.90
2018-10-17T00:11:51.950Z,26.40
2018-10-17T00:12:51.995Z,26.30
2018-10-17T00:13:51.920Z,27.10
2018-10-17T00:14:51.899Z,26.60
2018-10-17T00:15:51.929Z,26.60
2018-10-17T00:16:51.915Z,27.80
2018-10-17T00:17:51.849Z,27.40
2018-10-17T00:18:51.843Z,26.60
2018-10-17T00:19:51.813Z,26.40
2018-10-17T00:20:51.791Z,26.20
2018-10-17T00:21:51.781Z,26.80
2018-10-17T00:22:51.794Z,26.50
2018-10-17T00:23:51.741Z,26.00
2018-10-17T00:24:51.778Z,26.20
2018-10-17T00:25:51.706Z,27.00
2018-10-17T00:26:51.687Z,26.30
2018-10-17T00:27:51.683Z,27.10
2018-10-17T00:28:51.693Z,27.70
2018-10-17T00:29:51.647Z,27.50
2018-10-17T00:30:51.626Z,27.90
2018-10-17T00:31:51.601Z,26.90
2018-10-17T00:32:51.581Z,27.60
2018-10-17T00:33:51.568Z,26.50
2018-10-17T00:34:51.550Z,27.00
2018-10-17T00:35:51.528Z,26.60
2018-10-17T00:36:51.562Z,26.90
2018-10-17T00:37:51.499Z,25.80
2018-10-17T00:38:51.476Z,26.80
2018-10-17T00:39:51.461Z,26.10
2018-10-17T00:40:51.446Z,26.60
2018-10-17T00:41:51.426Z,25.70
2018-10-17T00:42:51.419Z,25.60
2018-10-17T00:43:51.390Z,27.00
2018-10-17T00:44:51.371Z,27.10
2018-10-17T00:45:51.354Z,27.30
2018-10-17T00:46:51.347Z,26.40
2018-10-17T00:47:51.322Z,26.20
2018-10-17T00:48:51.348Z,28.50
2018-10-17T00:49:51.285Z,27.80
2018-10-17T00:50:51.275Z,28.00
2018-10-17T00:51:51.249Z,27.70
2018-10-17T00:52:51.234Z,27.90
2018-10-17T00:53:51.216Z,28.10
2018-10-17T00:54:51.255Z,27.20
2018-10-17T00:55:51.180Z,28.40
2018-10-17T00:56:51.163Z,27.30
2018-10-17T00:57:51.155Z,28.00
2018-10-17T00:58:51.164Z,27.80
2018-10-17T00:59:51.112Z,28.40
2018-10-17T01:00:51.149Z,27.50
2018-10-17T01:01:51.086Z,28.20
2018-10-17T01:02:51.058Z,26.50
2018-10-17T01:03:51.042Z,25.90
2018-10-17T01:04:51.032Z,27.20
2018-10-17T01:05:51.008Z,27.50
2018-10-17T01:06:51.041Z,27.50
2018-10-17T01:07:50.971Z,27.70
2018-10-17T01:08:50.956Z,27.20
2018-10-17T01:09:50.934Z,27.50
2018-10-17T01:10:50.957Z,27.30
2018-10-17T01:11:50.925Z,27.90
2018-10-17T01:12:50.887Z,28.10
2018-10-17T01:13:50.866Z,26.70
2018-10-17T01:14:50.847Z,27.10
2018-10-17T01:15:50.831Z,27.20
2018-10-17T01:16:50.813Z,27.40
2018-10-17T01:17:50.793Z,27.50
2018-10-17T01:18:50.781Z,28.60
2018-10-17T01:19:50.757Z,27.10
2018-10-17T01:20:50.741Z,27.90
2018-10-17T01:21:50.724Z,27.60
2018-10-17T01:22:50.713Z,26.80
2018-10-17T01:23:50.688Z,26.70
2018-10-17T01:24:50.706Z,27.70
2018-10-17T01:25:50.654Z,27.10
2018-10-17T01:26:50.647Z,27.10
2018-10-17T01:27:50.624Z,27.30
2018-10-17T01:28:50.647Z,27.60
2018-10-17T01:30:23.794Z,27.00
2018-10-17T01:30:50.624Z,26.60
2018-10-17T01:31:50.552Z,26.30
2018-10-17T01:32:50.553Z,26.50
2018-10-17T01:33:50.515Z,26.90
2018-10-17T01:34:50.494Z,27.60
2018-10-17T01:35:50.476Z,28.30
2018-10-17T01:36:50.457Z,28.50
2018-10-17T01:37:50.439Z,27.10
2018-10-17T01:38:50.431Z,28.20
2018-10-17T01:39:50.404Z,26.60
2018-10-17T01:40:50.387Z,27.50
2018-10-17T01:41:50.380Z,28.50
2018-10-17T01:42:50.351Z,27.10
2018-10-17T01:43:50.337Z,27.20
2018-10-17T01:44:50.315Z,27.50
2018-10-17T01:45:50.300Z,28.50
2018-10-17T01:46:50.281Z,26.40
2018-10-17T01:47:50.313Z,27.10
2018-10-17T01:48:50.246Z,27.90
2018-10-17T01:49:50.227Z,27.80
2018-10-17T01:50:50.212Z,27.60
2018-10-17T01:51:50.190Z,27.10
2018-10-17T01:52:50.173Z,27.30
2018-10-17T01:53:50.155Z,28.20
2018-10-17T01:54:50.141Z,28.30
2018-10-17T01:55:50.121Z,28.00
2018-10-17T01:56:50.101Z,27.80
2018-10-17T01:57:50.083Z,27.80
2018-10-17T01:58:50.072Z,28.20
2018-10-17T01:59:50.047Z,28.30
2018-10-17T02:00:50.029Z,28.80
2018-10-17T02:01:50.015Z,28.60
2018-10-17T02:02:49.997Z,27.60
2018-10-17T02:03:49.975Z,29.70
2018-10-17T02:04:49.959Z,28.00
2018-10-17T02:05:49.942Z,28.80
2018-10-17T02:06:49.920Z,29.70
2018-10-17T02:07:49.913Z,28.90
2018-10-17T02:08:49.887Z,28.10
2018-10-17T02:09:49.878Z,29.30
2018-10-17T02:10:49.859Z,29.20
2018-10-17T02:11:49.832Z,29.30
2018-10-17T02:12:49.821Z,29.00
2018-10-17T02:13:49.796Z,29.40
2018-10-17T02:14:49.779Z,28.20
2018-10-17T02:15:49.766Z,29.60
2018-10-17T02:16:49.751Z,28.30
2018-10-17T02:17:49.725Z,28.80
2018-10-17T02:18:49.711Z,28.70
2018-10-17T02:19:49.690Z,28.70
2018-10-17T02:20:49.678Z,28.90
2018-10-17T02:21:49.655Z,28.30
2018-10-17T02:22:49.635Z,30.10
2018-10-17T02:23:49.617Z,30.00
2018-10-17T02:24:49.598Z,29.70
2018-10-17T02:25:49.620Z,29.70
2018-10-17T02:26:49.570Z,30.90
2018-10-17T02:27:49.544Z,29.80
2018-10-17T02:28:49.527Z,29.80
2018-10-17T02:29:49.521Z,30.20
2018-10-17T02:30:49.494Z,29.50
2018-10-17T02:31:49.521Z,29.30
2018-10-17T02:32:49.455Z,29.50
2018-10-17T02:33:49.443Z,31.20
2018-10-17T02:34:49.420Z,29.10
2018-10-17T02:35:49.414Z,30.10
2018-10-17T02:36:49.633Z,30.10
2018-10-17T02:37:49.365Z,29.80
2018-10-17T02:38:49.349Z,30.40
2018-10-17T02:39:49.507Z,30.40
2018-10-17T02:40:49.316Z,30.10
2018-10-17T02:41:49.293Z,29.80
2018-10-17T02:42:49.274Z,31.60
2018-10-17T02:43:49.258Z,30.50
2018-10-17T02:44:49.236Z,30.50
2018-10-17T02:45:49.220Z,31.00
2018-10-17T02:46:49.203Z,30.20
2018-10-17T02:47:49.190Z,30.30
2018-10-17T02:48:49.167Z,30.30
2018-10-17T02:49:49.146Z,30.00
2018-10-17T02:50:49.131Z,28.90
2018-10-17T02:51:49.112Z,29.50
2018-10-17T02:52:49.106Z,30.70
2018-10-17T02:53:49.076Z,30.40
2018-10-17T02:54:49.060Z,30.00
2018-10-17T02:55:49.086Z,30.70
2018-10-17T02:56:49.023Z,30.10
2018-10-17T02:57:49.009Z,29.30
2018-10-17T02:58:49.107Z,30.50
2018-10-17T02:59:48.975Z,29.90
2018-10-17T03:00:48.952Z,30.80
2018-10-17T03:01:48.940Z,30.70
2018-10-17T03:02:48.911Z,30.00
2018-10-17T03:03:48.894Z,29.70
2018-10-17T03:04:48.878Z,30.40
2018-10-17T03:05:48.868Z,30.60
2018-10-17T03:06:48.839Z,29.60
2018-10-17T03:07:48.829Z,30.50
2018-10-17T03:08:48.807Z,29.90
2018-10-17T03:09:48.787Z,29.40
2018-10-17T03:10:48.769Z,31.70
2018-10-17T03:11:48.770Z,30.30
2018-10-17T03:12:48.731Z,31.10
2018-10-17T03:13:48.716Z,29.40
2018-10-17T03:14:48.788Z,30.60
2018-10-17T03:15:48.676Z,30.10
2018-10-17T03:16:48.667Z,31.40
2018-10-17T03:17:48.691Z,30.20
2018-10-17T03:18:48.621Z,30.60
2018-10-17T03:19:48.606Z,31.00
2018-10-17T03:20:48.589Z,29.70
2018-10-17T03:21:48.569Z,29.40
2018-10-17T03:22:48.553Z,29.80
2018-10-17T03:23:48.548Z,30.90
2018-10-17T03:24:48.515Z,29.50
2018-10-17T03:25:48.630Z,30.40
2018-10-17T03:26:48.483Z,29.10
2018-10-17T03:27:48.554Z,29.20
2018-10-17T03:28:48.498Z,30.10
2018-10-17T03:29:48.422Z,29.20
2018-10-17T03:30:48.405Z,30.80
2018-10-17T03:31:48.384Z,30.80
2018-10-17T03:32:48.368Z,29.30
2018-10-17T03:33:48.350Z,29.90
2018-10-17T03:34:48.329Z,30.00
2018-10-17T03:35:48.338Z,29.60
2018-10-17T03:36:48.292Z,29.80
2018-10-17T03:37:48.276Z,30.30
2018-10-17T03:38:48.258Z,29.90
2018-10-17T03:39:48.239Z,30.70
2018-10-17T03:40:48.221Z,29.50
2018-10-17T03:41:48.209Z,30.60
2018-10-17T03:42:48.183Z,30.70
2018-10-17T03:43:48.167Z,29.40
2018-10-17T03:44:48.212Z,30.10
2018-10-17T03:45:48.129Z,30.50
2018-10-17T03:46:48.116Z,28.70
2018-10-17T03:47:48.215Z,29.90
2018-10-17T03:48:48.082Z,28.10
2018-10-17T03:49:48.070Z,28.90
2018-10-17T03:50:48.048Z,29.10
2018-10-17T03:51:48.019Z,31.50
2018-10-17T03:52:48.002Z,29.90
2018-10-17T03:53:47.984Z,30.70
2018-10-17T03:54:47.972Z,30.40
2018-10-17T03:55:47.951Z,30.10
2018-10-17T03:56:47.926Z,31.00
2018-10-17T03:57:47.920Z,28.70
2018-10-17T03:58:47.892Z,30.60
2018-10-17T03:59:47.917Z,30.00
2018-10-17T04:00:47.852Z,30.80
2018-10-17T04:01:47.836Z,29.60
2018-10-17T04:02:47.858Z,31.20
2018-10-17T04:03:47.797Z,30.60
2018-10-17T04:04:47.790Z,31.60
2018-10-17T04:05:47.762Z,31.10
2018-10-17T04:06:47.837Z,30.40
2018-10-17T04:07:47.725Z,30.60
2018-10-17T04:08:47.717Z,30.10
2018-10-17T04:09:47.688Z,30.80
2018-10-17T04:10:47.671Z,30.60
2018-10-17T04:11:47.651Z,32.30
2018-10-17T04:12:47.631Z,31.00
2018-10-17T04:13:47.622Z,30.50
2018-10-17T04:14:47.732Z,29.10
2018-10-17T04:15:47.575Z,30.70
2018-10-17T04:16:47.559Z,30.70
2018-10-17T04:17:47.541Z,29.40
2018-10-17T04:18:47.521Z,30.80
2018-10-17T04:19:47.504Z,31.70
2018-10-17T04:20:47.591Z,31.40
2018-10-17T04:21:47.467Z,30.80
2018-10-17T04:22:47.572Z,30.00
2018-10-17T04:23:47.430Z,30.90
2018-10-17T04:24:47.419Z,31.50
2018-10-17T04:25:47.394Z,30.60
2018-10-17T04:26:47.372Z,30.80
2018-10-17T04:27:47.355Z,29.90
2018-10-17T04:28:47.339Z,30.90
2018-10-17T04:29:47.320Z,30.70
2018-10-17T04:30:47.302Z,31.50
2018-10-17T04:31:47.282Z,30.80
2018-10-17T04:32:47.265Z,30.70
2018-10-17T04:33:47.343Z,30.00
2018-10-17T04:34:47.224Z,30.00
2018-10-17T04:35:47.211Z,31.30
2018-10-17T04:36:47.225Z,29.90
2018-10-17T04:37:47.170Z,30.70
2018-10-17T04:38:47.151Z,29.70
2018-10-17T04:39:47.133Z,30.30
2018-10-17T04:40:47.114Z,29.80
2018-10-17T04:41:47.119Z,30.10
2018-10-17T04:42:47.076Z,29.40
2018-10-17T04:43:47.060Z,28.90
2018-10-17T04:44:47.046Z,30.80
2018-10-17T04:45:47.026Z,29.90
2018-10-17T04:46:47.001Z,30.60
2018-10-17T04:47:47.104Z,30.30
2018-10-17T04:48:46.966Z,29.50
2018-10-17T04:49:46.964Z,30.90
2018-10-17T04:50:46.927Z,29.50
2018-10-17T04:51:46.907Z,30.30
2018-10-17T04:52:46.895Z,29.50
2018-10-17T04:53:46.870Z,30.40
2018-10-17T04:54:46.854Z,29.60
2018-10-17T04:55:46.838Z,30.90
2018-10-17T04:56:46.822Z,27.70
2018-10-17T04:57:46.807Z,26.20
2018-10-17T04:58:46.780Z,26.90
2018-10-17T04:59:46.759Z,25.60
2018-10-17T05:00:46.741Z,26.00
2018-10-17T05:01:46.731Z,28.40
2018-10-17T05:02:46.708Z,28.20
2018-10-17T05:03:46.685Z,27.60
2018-10-17T05:04:46.669Z,27.90
2018-10-17T05:05:46.662Z,28.60
2018-10-17T05:06:46.667Z,27.90
2018-10-17T05:07:46.610Z,26.40
2018-10-17T05:08:46.591Z,25.80
2018-10-17T05:09:46.579Z,27.50
2018-10-17T05:10:46.578Z,25.80
2018-10-17T05:11:46.535Z,28.60
2018-10-17T05:12:46.519Z,30.10
2018-10-17T05:13:46.508Z,29.60
2018-10-17T05:14:46.481Z,30.80
2018-10-17T05:15:46.469Z,30.30
2018-10-17T05:16:46.443Z,30.80
2018-10-17T05:17:46.424Z,28.90
2018-10-17T05:18:46.408Z,30.50
2018-10-17T05:19:46.394Z,29.70
2018-10-17T05:20:46.369Z,29.30
2018-10-17T05:21:46.351Z,27.90
2018-10-17T05:22:46.338Z,30.00
2018-10-17T05:23:46.317Z,28.00
2018-10-17T05:24:46.302Z,27.00
2018-10-17T05:25:46.309Z,26.10
2018-10-17T05:26:46.259Z,27.10
2018-10-17T05:27:46.240Z,27.90
2018-10-17T05:28:46.230Z,26.40
2018-10-17T05:29:46.306Z,25.50
2018-10-17T05:30:46.191Z,26.40
2018-10-17T05:31:46.165Z,25.80
2018-10-17T05:32:46.152Z,27.50
2018-10-17T05:33:46.135Z,28.40
2018-10-17T05:34:46.116Z,27.70
2018-10-17T05:35:46.090Z,28.10
2018-10-17T05:36:46.074Z,28.20
2018-10-17T05:37:46.220Z,28.50
2018-10-17T05:38:46.042Z,29.10
2018-10-17T05:39:46.029Z,27.80
2018-10-17T05:40:46.008Z,28.90
2018-10-17T05:41:45.978Z,28.70
2018-10-17T05:42:45.975Z,29.50
2018-10-17T05:43:45.942Z,28.20
2018-10-17T05:44:45.926Z,29.30
2018-10-17T05:45:45.907Z,28.80
2018-10-17T05:46:45.889Z,29.00
2018-10-17T05:47:45.867Z,26.70
2018-10-17T05:48:45.849Z,27.40
2018-10-17T05:49:45.841Z,30.60
2018-10-17T05:50:45.811Z,30.10
2018-10-17T05:51:45.795Z,29.10
2018-10-17T05:52:45.776Z,29.90
2018-10-17T05:53:45.760Z,28.60
2018-10-17T05:54:45.740Z,29.30
2018-10-17T05:55:45.721Z,30.30
2018-10-17T05:56:45.702Z,30.40
2018-10-17T05:57:45.684Z,29.60
2018-10-17T05:58:45.670Z,29.10
2018-10-17T05:59:45.647Z,30.00
2018-10-17T06:00:45.627Z,29.40
2018-10-17T06:01:45.771Z,29.90
2018-10-17T06:02:45.594Z,28.90
2018-10-17T06:03:45.573Z,29.90
2018-10-17T06:04:45.554Z,29.60
2018-10-17T06:05:45.536Z,29.10
2018-10-17T06:06:45.517Z,28.70
2018-10-17T06:07:45.497Z,28.80
2018-10-17T06:08:45.490Z,29.00
2018-10-17T06:09:45.461Z,28.00
2018-10-17T06:10:45.441Z,29.10
2018-10-17T06:11:45.428Z,29.10
2018-10-17T06:12:45.415Z,54.30
2018-10-17T06:13:45.393Z,39.20
2018-10-17T06:14:45.376Z,29.70
2018-10-17T06:15:45.353Z,29.90
2018-10-17T06:16:45.354Z,29.00
2018-10-17T06:17:45.312Z,29.60
2018-10-17T06:18:45.295Z,30.10
2018-10-17T06:19:45.284Z,27.60
2018-10-17T06:20:45.256Z,30.30
2018-10-17T06:21:45.240Z,28.10
2018-10-17T06:22:45.221Z,28.30
2018-10-17T06:23:45.205Z,28.40
2018-10-17T06:24:45.184Z,29.10
2018-10-17T06:25:45.164Z,26.10
2018-10-17T06:26:45.153Z,28.00
2018-10-17T06:27:45.126Z,28.00
2018-10-17T06:28:45.117Z,26.80
2018-10-17T06:29:45.101Z,26.70
2018-10-17T06:30:45.129Z,26.00
2018-10-17T06:31:45.057Z,27.70
2018-10-17T06:32:45.040Z,28.40
2018-10-17T06:33:45.397Z,29.30
2018-10-17T06:34:45.058Z,29.60
2018-10-17T06:35:44.982Z,29.20
2018-10-17T06:36:44.971Z,30.50
2018-10-17T06:37:44.946Z,28.70
2018-10-17T06:38:44.927Z,29.00
2018-10-17T06:39:44.906Z,29.10
2018-10-17T06:40:44.889Z,28.80
2018-10-17T06:41:44.874Z,28.30
2018-10-17T06:42:44.860Z,26.70
2018-10-17T06:43:44.916Z,30.40
2018-10-17T06:44:44.815Z,28.60
2018-10-17T06:45:44.800Z,31.00
2018-10-17T06:46:44.782Z,30.40
2018-10-17T06:47:44.759Z,30.60
2018-10-17T06:48:44.756Z,26.80
2018-10-17T06:49:44.728Z,28.30
2018-10-17T06:50:44.706Z,26.10
2018-10-17T06:51:44.693Z,26.90
2018-10-17T06:52:44.667Z,26.30
2018-10-17T06:53:44.723Z,26.10
2018-10-17T06:54:44.630Z,30.20
2018-10-17T06:55:44.612Z,26.90
2018-10-17T06:56:44.594Z,25.30
2018-10-17T06:57:44.584Z,26.10
2018-10-17T06:58:44.558Z,26.50
2018-10-17T06:59:44.541Z,24.80
2018-10-17T07:00:44.525Z,27.50
2018-10-17T07:01:44.666Z,26.40
2018-10-17T07:02:44.483Z,25.70
2018-10-17T07:03:44.537Z,26.30
2018-10-17T07:04:44.447Z,26.30
2018-10-17T07:05:44.438Z,25.30
2018-10-17T07:06:44.416Z,26.10
2018-10-17T07:07:44.390Z,24.90
2018-10-17T07:08:44.390Z,24.60
2018-10-17T07:09:44.355Z,23.60
2018-10-17T07:10:44.340Z,22.80
2018-10-17T07:11:44.319Z,23.40
2018-10-17T07:12:44.302Z,24.60
2018-10-17T07:13:44.284Z,25.20
2018-10-17T07:14:44.263Z,24.00
2018-10-17T07:15:44.364Z,25.00
2018-10-17T07:16:44.229Z,24.80
2018-10-17T07:17:44.208Z,25.10
2018-10-17T07:18:44.191Z,24.80
2018-10-17T07:19:44.179Z,24.70
2018-10-17T07:20:44.155Z,23.60
2018-10-17T07:21:44.138Z,23.50
2018-10-17T07:22:44.133Z,23.00
2018-10-17T07:23:44.103Z,22.80
2018-10-17T07:24:44.084Z,24.00
2018-10-17T07:25:44.065Z,24.10
2018-10-17T07:26:44.050Z,24.40
2018-10-17T07:27:44.031Z,23.80
2018-10-17T07:28:44.056Z,23.70
2018-10-17T07:29:44.161Z,23.60
2018-10-17T07:30:43.977Z,23.80
2018-10-17T07:31:43.957Z,22.20
2018-10-17T07:32:43.947Z,22.90
2018-10-17T07:33:43.921Z,22.40
2018-10-17T07:34:43.904Z,22.00
2018-10-17T07:35:43.921Z,21.60
2018-10-17T07:36:43.869Z,22.40
2018-10-17T07:37:43.856Z,22.00
2018-10-17T07:38:43.836Z,21.60
2018-10-17T07:39:43.823Z,21.60
2018-10-17T07:40:43.805Z,21.70
2018-10-17T07:41:43.790Z,22.70
2018-10-17T07:42:43.766Z,22.10
2018-10-17T07:43:43.748Z,21.70
2018-10-17T07:44:43.728Z,22.90
2018-10-17T07:45:43.840Z,21.00
2018-10-17T07:46:43.695Z,21.60
2018-10-17T07:47:43.675Z,20.90
2018-10-17T07:48:43.666Z,21.90
2018-10-17T07:49:43.839Z,21.90
2018-10-17T07:50:43.620Z,21.00
2018-10-17T07:51:43.602Z,21.60
2018-10-17T07:52:43.593Z,21.70
2018-10-17T07:53:43.585Z,21.00
2018-10-17T07:54:43.551Z,20.80
2018-10-17T07:55:43.535Z,20.30
2018-10-17T07:56:43.517Z,21.20
2018-10-17T07:57:43.499Z,20.30
2018-10-17T07:58:43.493Z,21.40
2018-10-17T07:59:43.532Z,21.10
2018-10-17T08:00:43.446Z,20.10
2018-10-17T08:01:43.429Z,21.20
2018-10-17T08:02:43.415Z,20.80
2018-10-17T08:03:43.414Z,21.00
2018-10-17T08:04:43.387Z,19.90
2018-10-17T08:05:43.362Z,19.90
2018-10-17T08:06:43.442Z,20.10
2018-10-17T08:07:43.329Z,19.90
2018-10-17T08:08:43.312Z,20.00
2018-10-17T08:09:43.299Z,20.10
2018-10-17T08:10:43.274Z,18.60
2018-10-17T08:11:43.266Z,19.30
2018-10-17T08:12:43.245Z,19.50
2018-10-17T08:13:43.228Z,18.50
2018-10-17T08:14:43.209Z,19.30
2018-10-17T08:15:43.198Z,19.20
2018-10-17T08:16:43.219Z,19.30
2018-10-17T08:17:43.159Z,20.10
2018-10-17T08:18:43.140Z,19.70
2018-10-17T08:19:43.124Z,20.10
2018-10-17T08:20:43.108Z,18.80
2018-10-17T08:21:43.091Z,18.50
2018-10-17T08:22:43.074Z,19.80
2018-10-17T08:23:43.064Z,19.00
2018-10-17T08:24:43.041Z,19.90
2018-10-17T08:25:43.043Z,19.50
2018-10-17T08:26:43.006Z,20.30
2018-10-17T08:27:42.992Z,20.80
2018-10-17T08:28:42.974Z,19.70
2018-10-17T08:29:42.965Z,20.30
2018-10-17T08:30:42.941Z,19.90
2018-10-17T08:31:42.927Z,21.10
2018-10-17T08:32:42.908Z,20.60
2018-10-17T08:33:42.892Z,18.90
2018-10-17T08:34:42.882Z,19.30
2018-10-17T08:35:43.035Z,20.70
2018-10-17T08:36:43.038Z,20.90
2018-10-17T08:37:43.216Z,19.80
2018-10-17T08:38:42.879Z,20.30
2018-10-17T08:39:42.790Z,20.20
2018-10-17T08:40:42.777Z,20.60
2018-10-17T08:41:42.760Z,20.40
2018-10-17T08:42:42.754Z,21.20
2018-10-17T08:43:42.726Z,19.10
2018-10-17T08:44:42.707Z,19.50
2018-10-17T08:45:42.712Z,19.60
2018-10-17T08:46:42.675Z,19.90
2018-10-17T08:47:42.662Z,19.70
2018-10-17T08:48:42.657Z,19.00
2018-10-17T08:49:42.641Z,19.40
2018-10-17T08:50:42.765Z,20.10
2018-10-17T08:51:42.597Z,18.60
2018-10-17T08:52:42.585Z,17.60
2018-10-17T08:53:42.568Z,18.20
2018-10-17T08:54:42.555Z,18.10
2018-10-17T08:55:42.541Z,17.30
2018-10-17T08:56:42.518Z,15.50
2018-10-17T08:57:42.573Z,17.50
2018-10-17T08:58:42.487Z,15.30
2018-10-17T08:59:42.483Z,15.70
2018-10-17T09:00:42.463Z,16.60
2018-10-17T09:01:42.438Z,16.50
2018-10-17T09:02:42.433Z,16.00
2018-10-17T09:03:42.408Z,15.80
2018-10-17T09:04:42.393Z,15.10
2018-10-17T09:05:42.383Z,15.50
2018-10-17T09:06:42.390Z,14.40
2018-10-17T09:07:42.485Z,14.30
2018-10-17T09:08:42.329Z,13.80
2018-10-17T09:09:42.317Z,14.10
2018-10-17T09:10:42.300Z,13.60
2018-10-17T09:11:42.295Z,13.30
2018-10-17T09:12:42.272Z,12.60
2018-10-17T09:13:42.259Z,12.00
2018-10-17T09:14:42.247Z,12.70
2018-10-17T09:15:42.242Z,12.00
2018-10-17T09:16:42.238Z,11.60
2018-10-17T09:17:42.198Z,11.80
2018-10-17T09:18:42.190Z,12.20
2018-10-17T09:19:43.160Z,11.80
2018-10-17T09:20:42.465Z,12.10
2018-10-17T09:21:42.570Z,12.40
2018-10-17T09:22:42.262Z,12.40
2018-10-17T09:23:42.117Z,12.50
2018-10-17T09:24:42.147Z,12.50
2018-10-17T09:25:42.207Z,12.50
2018-10-17T09:26:42.071Z,12.50
2018-10-17T09:27:42.062Z,12.20
2018-10-17T09:28:42.045Z,13.00
2018-10-17T09:29:42.034Z,12.30
2018-10-17T09:30:42.087Z,12.00
2018-10-17T09:31:42.017Z,12.30
2018-10-17T09:32:41.985Z,12.60
2018-10-17T09:33:44.592Z,12.60
2018-10-17T09:38:57.263Z,13.00
2018-10-17T09:39:59.895Z,12.90
2018-10-17T09:42:01.111Z,13.30
2018-10-17T09:43:01.080Z,14.10
2018-10-17T09:44:01.019Z,14.40
2018-10-17T09:45:01.006Z,14.30
2018-10-17T09:46:01.062Z,14.60
2018-10-17T09:47:01.028Z,14.50
2018-10-17T09:48:00.992Z,14.60
2018-10-17T09:49:00.954Z,15.30
2018-10-17T09:50:00.946Z,15.30
2018-10-17T09:51:00.925Z,15.10
2018-10-17T09:52:00.956Z,15.10
2018-10-17T09:53:00.932Z,15.40
2018-10-17T09:54:00.964Z,14.70
2018-10-17T09:55:00.921Z,14.60
2018-10-17T09:56:00.867Z,14.20
2018-10-17T09:57:00.852Z,14.80
2018-10-17T09:59:44.780Z,14.10
2018-10-17T10:00:43.558Z,14.20
2018-10-17T10:01:43.557Z,14.90
2018-10-17T10:02:43.526Z,14.00
2018-10-17T10:03:43.513Z,14.40
2018-10-17T10:04:43.515Z,14.60
2018-10-17T10:05:43.494Z,13.20
2018-10-17T10:06:43.479Z,14.30
2018-10-17T10:07:43.482Z,13.30
2018-10-17T10:08:43.462Z,13.10
2018-10-17T10:09:43.443Z,13.10
2018-10-17T10:10:43.442Z,12.60
2018-10-17T10:11:43.423Z,13.00
2018-10-17T10:12:43.409Z,13.40
2018-10-17T10:13:43.398Z,13.70
2018-10-17T10:14:43.391Z,13.20
2018-10-17T10:15:43.379Z,13.50
2018-10-17T10:16:43.371Z,14.00
2018-10-17T10:17:43.433Z,13.30
2018-10-17T10:18:43.345Z,13.10
2018-10-17T10:19:43.335Z,12.70
2018-10-17T10:20:43.331Z,13.30
2018-10-17T10:21:43.322Z,12.40
2018-10-17T10:22:43.329Z,12.80
2018-10-17T10:23:43.602Z,14.40
2018-10-17T10:24:43.377Z,13.80
2018-10-17T10:25:43.276Z,13.80
2018-10-17T10:26:43.264Z,13.60
2018-10-17T10:27:43.263Z,13.50
2018-10-17T10:28:43.323Z,14.30
2018-10-17T10:29:43.276Z,13.90
2018-10-17T10:30:43.225Z,14.30
2018-10-17T10:31:43.218Z,14.00
2018-10-17T10:32:43.212Z,13.90
2018-10-17T10:33:43.200Z,14.30
2018-10-17T10:34:43.194Z,14.40
2018-10-17T10:35:43.176Z,13.90
2018-10-17T10:36:43.165Z,13.80
2018-10-17T10:37:43.179Z,13.20
2018-10-17T10:38:43.146Z,14.30
2018-10-17T10:39:43.136Z,14.40
2018-10-17T10:40:43.242Z,14.10
2018-10-17T10:41:43.118Z,13.70
2018-10-17T10:42:43.107Z,14.90
2018-10-17T10:43:43.100Z,15.10
2018-10-17T10:44:43.088Z,14.90
2018-10-17T10:45:43.083Z,14.80
2018-10-17T10:46:43.074Z,15.00
2018-10-17T10:47:43.059Z,15.70
2018-10-17T10:48:43.058Z,15.50
2018-10-17T10:49:43.041Z,14.60
2018-10-17T10:50:43.031Z,16.10
2018-10-17T10:51:43.121Z,16.10
2018-10-17T10:52:43.043Z,15.50
2018-10-17T10:53:43.005Z,15.80
2018-10-17T10:54:42.991Z,16.70
2018-10-17T10:55:42.992Z,16.20
2018-10-17T10:56:42.981Z,15.90
2018-10-17T10:57:42.977Z,14.90
2018-10-17T10:58:43.036Z,15.80
2018-10-17T10:59:43.026Z,15.60
2018-10-17T11:00:42.941Z,15.40
2018-10-17T11:01:42.927Z,15.40
2018-10-17T11:02:42.920Z,16.10
2018-10-17T11:03:42.906Z,15.10
2018-10-17T11:04:42.935Z,15.80
2018-10-17T11:05:43.078Z,15.40
2018-10-17T11:06:42.875Z,16.30
2018-10-17T11:07:42.862Z,15.20
2018-10-17T11:08:42.861Z,16.10
2018-10-17T11:09:42.859Z,15.70
2018-10-17T11:10:42.835Z,14.80
2018-10-17T11:11:42.828Z,15.20
2018-10-17T11:12:42.815Z,15.40
2018-10-17T11:13:42.810Z,15.20
2018-10-17T11:14:43.004Z,15.80
2018-10-17T11:15:42.784Z,15.40
2018-10-17T11:16:42.778Z,15.40
2018-10-17T11:17:42.767Z,15.20
2018-10-17T11:18:42.754Z,16.30
2018-10-17T11:19:42.749Z,15.90
2018-10-17T11:20:42.742Z,15.80
2018-10-17T11:21:42.755Z,15.90
2018-10-17T11:22:42.713Z,15.00
2018-10-17T11:23:42.722Z,15.70
2018-10-17T11:24:42.697Z,15.50
2018-10-17T11:25:42.692Z,14.90
2018-10-17T11:26:42.678Z,14.50
2018-10-17T11:27:42.670Z,14.20
2018-10-17T11:28:42.658Z,14.70
2018-10-17T11:29:42.645Z,14.90
2018-10-17T11:30:42.666Z,15.30
2018-10-17T11:31:42.667Z,14.30
2018-10-17T11:32:42.624Z,15.20
2018-10-17T11:33:42.611Z,15.30
2018-10-17T11:34:42.598Z,14.40
2018-10-17T11:35:42.601Z,14.90
2018-10-17T11:36:42.575Z,14.90
2018-10-17T11:37:42.634Z,14.90
2018-10-17T11:38:42.555Z,15.70
2018-10-17T11:39:42.544Z,15.30
2018-10-17T11:40:42.718Z,15.60
2018-10-17T11:41:42.541Z,14.40
2018-10-17T11:42:42.510Z,15.50
2018-10-17T11:43:42.505Z,15.40
2018-10-17T11:44:42.499Z,15.10
2018-10-17T11:45:42.488Z,14.20
2018-10-17T11:46:42.483Z,15.30
2018-10-17T11:47:42.538Z,14.80
2018-10-17T11:48:42.460Z,16.40
2018-10-17T11:49:42.438Z,26.50
2018-10-17T11:50:42.426Z,19.80
2018-10-17T11:51:42.428Z,15.50
2018-10-17T11:52:42.404Z,14.50
2018-10-17T11:53:42.398Z,15.40
2018-10-17T11:54:42.397Z,15.70
2018-10-17T11:55:42.378Z,15.40
2018-10-17T11:56:42.365Z,15.00
2018-10-17T11:57:42.364Z,15.50
2018-10-17T11:58:42.337Z,14.60
2018-10-17T11:59:42.448Z,14.80
2018-10-17T12:00:42.333Z,14.90
2018-10-17T12:01:42.339Z,14.80
2018-10-17T12:02:42.295Z,14.60
2018-10-17T12:03:42.525Z,15.10
2018-10-17T12:04:42.424Z,15.40
2018-10-17T12:05:42.371Z,14.90
2018-10-17T12:06:42.250Z,15.30
2018-10-17T12:07:42.240Z,15.00
2018-10-17T12:08:42.229Z,14.90
2018-10-17T12:09:42.238Z,14.90
2018-10-17T12:10:42.211Z,15.30
2018-10-17T12:11:42.271Z,14.50
2018-10-17T12:12:42.185Z,14.10
2018-10-17T12:13:42.174Z,14.70
2018-10-17T12:14:42.169Z,15.10
2018-10-17T12:15:42.148Z,20.30
2018-10-17T12:16:42.142Z,15.20
2018-10-17T12:17:42.181Z,14.80
2018-10-17T12:18:42.125Z,18.30
2018-10-17T12:19:42.166Z,21.70
2018-10-17T12:20:42.101Z,17.50
2018-10-17T12:21:42.093Z,26.40
2018-10-17T12:22:42.083Z,17.80
2018-10-17T12:23:42.060Z,14.80
2018-10-17T12:24:42.049Z,15.20
2018-10-17T12:25:42.041Z,14.40
2018-10-17T12:26:42.025Z,15.00
2018-10-17T12:27:42.017Z,15.30
2018-10-17T12:28:42.066Z,16.70
2018-10-17T12:29:41.995Z,15.10
2018-10-17T12:30:41.993Z,17.20
2018-10-17T12:31:41.972Z,16.20
2018-10-17T12:32:41.977Z,16.30
2018-10-17T12:33:41.955Z,15.00
2018-10-17T12:34:41.947Z,15.00
2018-10-17T12:35:41.924Z,15.60
2018-10-17T12:36:41.940Z,15.70
2018-10-17T12:37:41.914Z,15.40
2018-10-17T12:38:41.901Z,15.30
2018-10-17T12:39:42.015Z,15.80
2018-10-17T12:40:42.025Z,16.30
2018-10-17T12:41:41.955Z,15.40
2018-10-17T12:42:41.845Z,14.60
2018-10-17T12:43:41.840Z,15.40
2018-10-17T12:44:41.836Z,15.20
2018-10-17T12:45:41.888Z,15.40
2018-10-17T12:46:41.806Z,16.20
2018-10-17T12:47:41.788Z,16.00
2018-10-17T12:48:41.808Z,15.10
2018-10-17T12:49:41.822Z,15.40
2018-10-17T12:50:41.758Z,15.10
2018-10-17T12:51:41.745Z,15.80
2018-10-17T12:52:41.834Z,15.80
2018-10-17T12:53:41.807Z,16.40
2018-10-17T12:54:41.710Z,16.10
2018-10-17T12:55:41.848Z,16.30
2018-10-17T12:56:41.686Z,16.00
2018-10-17T12:57:41.675Z,15.90
2018-10-17T12:58:41.664Z,15.80
2018-10-17T12:59:41.652Z,16.00